createdAt,value
2023-05-13T00:00:34.258Z,12.70
2023-05-13T00:03:02.730Z,12.70
2023-05-13T00:05:38.058Z,12.60
2023-05-13T00:08:10.979Z,12.60
2023-05-13T00:10:55.449Z,12.40
2023-05-13T00:13:31.948Z,12.40
2023-05-13T00:16:01.065Z,12.30
2023-05-13T00:18:40.452Z,12.30
2023-05-13T00:21:14.609Z,12.30
2023-05-13T00:23:46.172Z,12.30
2023-05-13T00:26:35.000Z,12.30
2023-05-13T00:29:14.286Z,12.40
2023-05-13T00:31:46.200Z,12.40
2023-05-13T00:34:20.014Z,12.50
2023-05-13T00:37:00.584Z,12.40
2023-05-13T00:39:40.120Z,12.40
2023-05-13T00:42:17.182Z,12.30
2023-05-13T00:44:55.287Z,12.20
2023-05-13T00:47:25.850Z,12.20
2023-05-13T00:49:59.637Z,12.10
2023-05-13T00:52:42.017Z,12.10
2023-05-13T00:55:12.597Z,12.00
2023-05-13T00:57:54.279Z,12.00
2023-05-13T01:00:25.233Z,12.00
2023-05-13T01:03:06.091Z,12.10
2023-05-13T01:05:46.680Z,12.00
2023-05-13T01:08:33.160Z,12.00
2023-05-13T01:11:19.241Z,12.00
2023-05-13T01:14:03.157Z,12.00
2023-05-13T01:16:42.172Z,11.90
2023-05-13T01:19:34.406Z,11.80
2023-05-13T01:22:18.276Z,11.80
2023-05-13T01:24:56.222Z,11.80
2023-05-13T01:27:36.291Z,11.70
2023-05-13T01:30:13.625Z,11.80
2023-05-13T01:32:49.558Z,11.80
2023-05-13T01:35:25.057Z,11.90
2023-05-13T01:38:08.715Z,11.90
2023-05-13T01:40:44.028Z,11.90
2023-05-13T01:43:23.970Z,12.00
2023-05-13T01:46:08.980Z,12.00
2023-05-13T01:48:45.749Z,12.00
2023-05-13T01:51:15.133Z,12.00
2023-05-13T01:54:03.621Z,12.00
2023-05-13T01:56:37.757Z,12.00
2023-05-13T01:59:15.799Z,12.00
2023-05-13T02:01:54.421Z,11.90
2023-05-13T02:04:30.490Z,11.90
2023-05-13T02:07:10.264Z,11.90
2023-05-13T02:09:39.939Z,11.90
2023-05-13T02:12:20.027Z,11.80
2023-05-13T02:14:52.806Z,11.80
2023-05-13T02:17:35.304Z,11.80
2023-05-13T02:20:15.087Z,11.80
2023-05-13T02:22:49.238Z,11.80
2023-05-13T02:25:31.251Z,11.70
2023-05-13T02:28:13.965Z,11.70
2023-05-13T02:30:50.997Z,11.60
2023-05-13T02:33:30.250Z,11.60
2023-05-13T02:36:11.736Z,11.50
2023-05-13T02:38:49.278Z,11.50
2023-05-13T02:41:30.994Z,11.40
2023-05-13T02:44:03.197Z,11.40
2023-05-13T02:46:47.440Z,11.30
2023-05-13T02:49:17.129Z,11.30
2023-05-13T02:51:50.646Z,11.30
2023-05-13T02:54:34.539Z,11.30
2023-05-13T02:57:14.194Z,11.30
2023-05-13T02:59:46.592Z,11.40
2023-05-13T03:02:24.296Z,11.40
2023-05-13T03:05:02.342Z,11.40
2023-05-13T03:07:35.993Z,11.40
2023-05-13T03:10:09.222Z,11.40
2023-05-13T03:12:46.906Z,11.30
2023-05-13T03:15:25.587Z,11.30
2023-05-13T03:17:54.622Z,11.30
2023-05-13T03:20:35.229Z,11.20
2023-05-13T03:23:11.546Z,11.20
2023-05-13T03:25:53.040Z,11.20
2023-05-13T03:28:33.768Z,11.10
2023-05-13T03:31:07.012Z,11.10
2023-05-13T03:33:55.681Z,11.10
2023-05-13T03:36:31.541Z,11.10
2023-05-13T03:39:06.126Z,11.20
2023-05-13T03:41:37.166Z,11.20
2023-05-13T03:44:14.339Z,11.20
2023-05-13T03:46:54.882Z,11.30
2023-05-13T03:49:35.390Z,11.30
2023-05-13T03:52:15.246Z,11.30
2023-05-13T03:54:49.325Z,11.30
2023-05-13T03:57:19.246Z,11.30
2023-05-13T03:59:50.963Z,11.30
2023-05-13T04:02:27.160Z,11.30
2023-05-13T04:05:02.137Z,11.30
2023-05-13T04:07:35.659Z,11.30
2023-05-13T04:10:16.410Z,11.30
2023-05-13T04:12:51.002Z,11.20
2023-05-13T04:15:27.630Z,11.20
2023-05-13T04:17:58.818Z,11.20
2023-05-13T04:20:36.124Z,11.20
2023-05-13T04:23:09.148Z,11.20
2023-05-13T04:25:42.825Z,11.20
2023-05-13T04:28:12.620Z,11.20
2023-05-13T04:30:45.885Z,11.20
2023-05-13T04:33:17.604Z,11.20
2023-05-13T04:36:02.871Z,11.30
2023-05-13T04:38:42.338Z,11.30
2023-05-13T04:41:24.115Z,11.40
2023-05-13T04:44:02.268Z,11.50
2023-05-13T04:46:54.441Z,11.60
2023-05-13T04:49:34.406Z,11.80
2023-05-13T04:52:05.096Z,11.90
2023-05-13T04:54:50.705Z,12.00
2023-05-13T04:57:28.630Z,12.20
2023-05-13T04:59:57.976Z,12.30
2023-05-13T05:02:36.472Z,12.40
2023-05-13T05:05:17.394Z,12.60
2023-05-13T05:07:57.080Z,12.80
2023-05-13T05:10:37.320Z,12.90
2023-05-13T05:13:08.264Z,13.00
2023-05-13T05:15:42.146Z,13.20
2023-05-13T05:18:16.890Z,13.60
2023-05-13T05:20:57.010Z,14.10
2023-05-13T05:23:30.601Z,14.70
2023-05-13T05:26:12.348Z,15.20
2023-05-13T05:28:56.534Z,15.80
2023-05-13T05:31:32.899Z,16.50
2023-05-13T05:34:12.898Z,17.20
2023-05-13T05:36:43.499Z,17.90
2023-05-13T05:39:14.811Z,18.60
2023-05-13T05:41:59.320Z,19.30
2023-05-13T05:44:38.974Z,20.10
2023-05-13T05:47:14.164Z,20.90
2023-05-13T05:49:58.810Z,21.60
2023-05-13T05:52:34.056Z,22.30
2023-05-13T05:55:07.335Z,23.00
2023-05-13T05:57:40.356Z,23.60
2023-05-13T06:00:14.553Z,24.10
2023-05-13T06:02:53.145Z,24.50
2023-05-13T06:05:40.686Z,24.60
2023-05-13T06:08:21.709Z,24.80
2023-05-13T06:11:01.540Z,25.10
2023-05-13T06:13:42.062Z,24.30
2023-05-13T06:16:16.152Z,22.80
2023-05-13T06:18:52.032Z,21.20
2023-05-13T06:21:30.218Z,19.80
2023-05-13T06:24:06.621Z,18.70
2023-05-13T06:26:41.065Z,17.80
2023-05-13T06:29:21.566Z,17.20
2023-05-13T06:31:56.561Z,16.70
2023-05-13T06:34:36.054Z,16.40
2023-05-13T06:37:16.217Z,16.10
2023-05-13T06:39:46.737Z,15.90
2023-05-13T06:42:26.612Z,15.70
2023-05-13T06:45:05.695Z,15.60
2023-05-13T06:47:36.404Z,15.50
2023-05-13T06:50:11.263Z,15.40
2023-05-13T06:52:45.438Z,15.30
2023-05-13T06:55:22.449Z,15.20
2023-05-13T06:58:06.908Z,15.10
2023-05-13T07:00:41.906Z,15.10
2023-05-13T07:03:13.866Z,15.10
2023-05-13T07:05:45.936Z,15.10
2023-05-13T07:08:21.715Z,15.10
2023-05-13T07:11:01.940Z,15.10
2023-05-13T07:13:38.024Z,15.20
2023-05-13T07:16:13.652Z,15.20
2023-05-13T07:18:44.715Z,15.20
2023-05-13T07:21:28.631Z,15.30
2023-05-13T07:24:05.804Z,15.30
2023-05-13T07:26:36.693Z,15.40
2023-05-13T07:29:07.447Z,15.40
2023-05-13T07:31:38.166Z,15.40
2023-05-13T07:34:08.620Z,15.50
2023-05-13T07:36:39.177Z,15.50
2023-05-13T07:39:15.702Z,15.60
2023-05-13T07:41:52.355Z,15.60
2023-05-13T07:44:37.601Z,15.60
2023-05-13T07:47:06.154Z,15.70
2023-05-13T07:49:38.382Z,15.70
2023-05-13T07:52:09.174Z,15.80
2023-05-13T07:54:53.351Z,15.80
2023-05-13T07:57:22.064Z,15.90
2023-05-13T08:00:03.774Z,16.00
2023-05-13T08:03:09.305Z,16.10
2023-05-13T08:05:49.664Z,16.10
2023-05-13T08:08:20.418Z,16.20
2023-05-13T08:11:10.447Z,16.10
2023-05-13T08:13:42.049Z,16.20
2023-05-13T08:16:17.128Z,16.30
2023-05-13T08:18:56.884Z,16.30
2023-05-13T08:21:37.421Z,16.40
2023-05-13T08:24:19.640Z,16.50
2023-05-13T08:26:59.297Z,16.50
2023-05-13T08:29:30.223Z,16.50
2023-05-13T08:32:03.449Z,16.50
2023-05-13T08:34:35.220Z,16.60
2023-05-13T08:37:05.730Z,16.60
2023-05-13T08:39:45.817Z,16.70
2023-05-13T08:42:21.237Z,16.70
2023-05-13T08:44:54.200Z,16.70
2023-05-13T08:47:38.042Z,16.70
2023-05-13T08:50:09.476Z,16.70
2023-05-13T08:52:46.149Z,16.70
2023-05-13T08:55:24.735Z,16.80
2023-05-13T08:58:10.500Z,16.80
2023-05-13T09:00:50.068Z,16.90
2023-05-13T09:03:21.869Z,16.90
2023-05-13T09:05:59.222Z,16.90
2023-05-13T09:08:36.095Z,17.00
2023-05-13T09:11:13.253Z,17.00
2023-05-13T09:13:49.117Z,17.00
2023-05-13T09:16:26.056Z,17.10
2023-05-13T09:19:05.084Z,17.10
2023-05-13T09:21:45.291Z,17.10
2023-05-13T09:24:21.905Z,17.20
2023-05-13T09:26:56.726Z,17.30
2023-05-13T09:29:43.597Z,17.30
2023-05-13T09:32:16.496Z,17.40
2023-05-13T09:34:51.678Z,17.40
2023-05-13T09:37:24.500Z,17.50
2023-05-13T09:39:59.539Z,17.50
2023-05-13T09:42:38.469Z,17.60
2023-05-13T09:45:15.031Z,17.60
2023-05-13T09:47:49.667Z,17.70
2023-05-13T09:50:18.443Z,17.80
2023-05-13T09:52:58.835Z,17.80
2023-05-13T09:55:33.743Z,17.80
2023-05-13T09:58:09.707Z,17.90
2023-05-13T10:00:47.765Z,17.90
2023-05-13T10:03:19.353Z,17.90
2023-05-13T10:05:52.699Z,17.90
2023-05-13T10:08:32.088Z,18.00
2023-05-13T10:11:05.866Z,18.10
2023-05-13T10:13:44.806Z,18.10
2023-05-13T10:16:21.261Z,18.10
2023-05-13T10:18:53.042Z,18.00
2023-05-13T10:21:32.781Z,18.00
2023-05-13T10:24:09.246Z,18.10
2023-05-13T10:26:41.860Z,18.10
2023-05-13T10:29:14.875Z,18.10
2023-05-13T10:31:50.275Z,18.20
2023-05-13T10:34:27.477Z,18.30
2023-05-13T10:37:15.692Z,18.30
2023-05-13T10:40:30.346Z,18.30
2023-05-13T10:43:18.454Z,18.30
2023-05-13T10:45:58.266Z,18.30
2023-05-13T10:48:48.560Z,18.40
2023-05-13T10:51:26.397Z,18.40
2023-05-13T10:54:02.290Z,18.40
2023-05-13T10:56:40.399Z,18.40
2023-05-13T10:59:13.953Z,18.50
2023-05-13T11:01:48.045Z,18.50
2023-05-13T11:04:25.163Z,18.50
2023-05-13T11:07:04.532Z,18.60
2023-05-13T11:09:35.129Z,18.60
2023-05-13T11:12:08.544Z,18.70
2023-05-13T11:14:42.510Z,18.70
2023-05-13T11:17:21.796Z,18.70
2023-05-13T11:19:53.850Z,18.80
2023-05-13T11:22:32.567Z,18.80
2023-05-13T11:25:13.754Z,18.90
2023-05-13T11:27:50.926Z,18.90
2023-05-13T11:30:26.845Z,18.80
2023-05-13T11:33:12.618Z,18.90
2023-05-13T11:35:51.940Z,18.90
2023-05-13T11:38:32.945Z,19.00
2023-05-13T11:41:09.291Z,19.00
2023-05-13T11:43:41.422Z,19.00
2023-05-13T11:46:25.070Z,19.10
2023-05-13T11:49:07.089Z,19.20
2023-05-13T11:51:51.082Z,19.20
2023-05-13T11:54:31.518Z,19.20
2023-05-13T11:57:04.712Z,19.20
2023-05-13T11:59:48.438Z,19.20
2023-05-13T12:02:19.397Z,19.20
2023-05-13T12:04:50.521Z,19.20
2023-05-13T12:07:31.369Z,19.20
2023-05-13T12:10:04.018Z,19.30
2023-05-13T12:13:02.760Z,19.30
2023-05-13T12:15:42.883Z,19.30
2023-05-13T12:18:13.785Z,19.30
2023-05-13T12:20:42.847Z,19.30
2023-05-13T12:23:22.869Z,19.30
2023-05-13T12:26:02.831Z,19.30
2023-05-13T12:28:33.967Z,19.30
2023-05-13T12:31:05.761Z,19.30
2023-05-13T12:33:45.284Z,19.30
2023-05-13T12:36:28.750Z,19.30
2023-05-13T12:39:12.130Z,19.30
2023-05-13T12:41:59.072Z,19.20
2023-05-13T12:44:30.074Z,19.20
2023-05-13T12:47:04.710Z,19.30
2023-05-13T12:49:42.548Z,19.30
2023-05-13T12:52:25.127Z,19.30
2023-05-13T12:55:06.929Z,19.30
2023-05-13T12:57:46.933Z,19.30
2023-05-13T13:00:18.337Z,19.30
2023-05-13T13:02:49.955Z,19.30
2023-05-13T13:05:23.663Z,19.30
2023-05-13T13:08:07.526Z,19.30
2023-05-13T13:10:43.524Z,19.30
2023-05-13T13:13:25.042Z,19.30
2023-05-13T13:16:04.458Z,19.30
2023-05-13T13:18:43.938Z,19.30
2023-05-13T13:21:16.536Z,19.40
2023-05-13T13:23:54.861Z,19.40
2023-05-13T13:26:29.032Z,19.50
2023-05-13T13:29:01.846Z,19.50
2023-05-13T13:31:32.617Z,19.60
2023-05-13T13:34:04.324Z,19.60
2023-05-13T13:36:36.095Z,19.60
2023-05-13T13:39:17.939Z,19.60
2023-05-13T13:41:54.963Z,19.60
2023-05-13T13:44:31.597Z,19.60
2023-05-13T13:47:06.434Z,19.60
2023-05-13T13:49:36.751Z,19.70
2023-05-13T13:52:18.730Z,19.70
2023-05-13T13:54:56.142Z,19.70
2023-05-13T13:57:36.396Z,19.70
2023-05-13T14:00:05.386Z,19.70
2023-05-13T14:02:40.292Z,19.70
2023-05-13T14:05:17.012Z,19.80
2023-05-13T14:07:54.140Z,19.70
2023-05-13T14:10:25.744Z,19.60
2023-05-13T14:12:56.630Z,19.50
2023-05-13T14:15:39.479Z,19.50
2023-05-13T14:18:19.459Z,19.40
2023-05-13T14:20:59.744Z,19.40
2023-05-13T14:23:36.898Z,19.30
2023-05-13T14:26:17.854Z,19.20
2023-05-13T14:28:51.984Z,19.20
2023-05-13T14:31:33.496Z,19.10
2023-05-13T14:34:12.572Z,19.10
2023-05-13T14:36:45.711Z,19.20
2023-05-13T14:39:26.047Z,19.30
2023-05-13T14:42:04.973Z,19.30
2023-05-13T14:44:43.673Z,19.30
2023-05-13T14:47:20.940Z,19.10
2023-05-13T14:50:02.909Z,19.10
2023-05-13T14:52:40.080Z,19.00
2023-05-13T14:55:15.578Z,18.90
2023-05-13T14:57:48.296Z,18.90
2023-05-13T15:00:28.810Z,18.90
2023-05-13T15:03:03.333Z,18.80
2023-05-13T15:05:43.299Z,18.60
2023-05-13T15:08:20.522Z,18.50
2023-05-13T15:10:50.752Z,18.50
2023-05-13T15:13:20.446Z,18.40
2023-05-13T15:15:53.641Z,18.40
2023-05-13T15:18:27.239Z,18.40
2023-05-13T15:21:03.235Z,18.30
2023-05-13T15:23:43.698Z,18.30
2023-05-13T15:26:20.075Z,18.30
2023-05-13T15:28:50.903Z,18.20
2023-05-13T15:31:38.548Z,18.20
2023-05-13T15:34:10.441Z,18.20
2023-05-13T15:36:44.461Z,18.20
2023-05-13T15:39:29.113Z,18.20
2023-05-13T15:42:08.532Z,18.20
2023-05-13T15:44:43.967Z,18.20
2023-05-13T15:47:33.142Z,18.20
2023-05-13T15:50:07.870Z,18.20
2023-05-13T15:52:38.857Z,18.20
2023-05-13T15:55:09.406Z,18.20
2023-05-13T15:57:45.262Z,18.20
2023-05-13T16:00:18.779Z,18.20
2023-05-13T16:02:53.263Z,18.10
2023-05-13T16:05:30.397Z,18.10
2023-05-13T16:08:07.677Z,18.10
2023-05-13T16:10:38.293Z,18.10
2023-05-13T16:13:15.806Z,18.10
2023-05-13T16:15:53.502Z,18.10
2023-05-13T16:18:41.447Z,18.10
2023-05-13T16:21:10.835Z,18.00
2023-05-13T16:23:44.527Z,18.00
2023-05-13T16:26:18.937Z,18.00
2023-05-13T16:28:49.352Z,18.00
2023-05-13T16:31:22.766Z,18.00
2023-05-13T16:33:54.306Z,18.10
2023-05-13T16:36:28.666Z,18.10
2023-05-13T16:39:09.089Z,18.20
2023-05-13T16:41:46.818Z,18.20
2023-05-13T16:44:20.832Z,18.10
2023-05-13T16:46:54.864Z,18.10
2023-05-13T16:49:34.288Z,18.10
2023-05-13T16:52:10.705Z,18.10
2023-05-13T16:54:42.595Z,18.20
2023-05-13T16:57:19.732Z,18.30
2023-05-13T16:59:54.615Z,18.40
2023-05-13T17:02:34.508Z,18.50
2023-05-13T17:05:13.646Z,18.50
2023-05-13T17:07:44.828Z,18.60
2023-05-13T17:10:24.570Z,18.70
2023-05-13T17:13:02.671Z,18.70
2023-05-13T17:15:31.224Z,18.60
2023-05-13T17:18:03.365Z,18.50
2023-05-13T17:20:41.951Z,18.40
2023-05-13T17:23:18.170Z,18.30
2023-05-13T17:25:47.760Z,18.30
2023-05-13T17:28:24.500Z,18.20
2023-05-13T17:30:53.808Z,18.20
2023-05-13T17:33:29.605Z,18.20
2023-05-13T17:36:04.494Z,18.10
2023-05-13T17:38:48.318Z,18.10
2023-05-13T17:41:19.207Z,18.00
2023-05-13T17:43:50.888Z,18.00
2023-05-13T17:46:22.252Z,18.00
2023-05-13T17:49:01.374Z,17.90
2023-05-13T17:51:39.959Z,18.00
2023-05-13T17:54:19.904Z,18.00
2023-05-13T17:56:53.380Z,18.00
2023-05-13T17:59:26.733Z,18.00
2023-05-13T18:02:04.428Z,18.00
2023-05-13T18:04:36.099Z,18.00
2023-05-13T18:07:11.524Z,18.00
2023-05-13T18:09:46.740Z,18.00
2023-05-13T18:12:19.006Z,18.00
2023-05-13T18:14:50.005Z,18.00
2023-05-13T18:17:29.689Z,18.00
2023-05-13T18:20:02.648Z,18.00
2023-05-13T18:22:38.008Z,17.90
2023-05-13T18:25:15.213Z,17.90
2023-05-13T18:28:02.369Z,17.90
2023-05-13T18:30:40.408Z,17.90
2023-05-13T18:33:13.280Z,17.80
2023-05-13T18:35:46.975Z,17.80
2023-05-13T18:38:21.045Z,17.70
2023-05-13T18:41:05.210Z,17.70
2023-05-13T18:43:39.562Z,17.60
2023-05-13T18:46:15.329Z,17.60
2023-05-13T18:48:50.653Z,17.60
2023-05-13T18:51:21.690Z,17.50
2023-05-13T18:54:05.101Z,17.50
2023-05-13T18:56:45.918Z,17.50
2023-05-13T18:59:24.264Z,17.40
2023-05-13T19:01:55.167Z,17.40
2023-05-13T19:04:28.379Z,17.40
2023-05-13T19:07:03.437Z,17.30
2023-05-13T19:09:51.017Z,17.30
2023-05-13T19:12:22.082Z,17.30
2023-05-13T19:15:03.568Z,17.30
2023-05-13T19:17:43.516Z,17.30
2023-05-13T19:20:18.874Z,17.30
2023-05-13T19:22:57.134Z,17.20
2023-05-13T19:25:44.818Z,17.20
2023-05-13T19:28:16.206Z,17.20
2023-05-13T19:30:53.843Z,17.10
2023-05-13T19:33:31.445Z,17.10
2023-05-13T19:36:04.158Z,17.10
2023-05-13T19:38:41.090Z,17.10
2023-05-13T19:41:10.526Z,17.10
2023-05-13T19:43:50.730Z,17.10
2023-05-13T19:46:29.190Z,17.10
2023-05-13T19:49:06.319Z,17.00
2023-05-13T19:51:36.620Z,17.00
2023-05-13T19:54:11.025Z,17.00
2023-05-13T19:56:51.220Z,16.90
2023-05-13T19:59:31.200Z,16.90
2023-05-13T20:02:11.193Z,16.90
2023-05-13T20:04:44.738Z,16.90
2023-05-13T20:07:20.655Z,16.90
2023-05-13T20:09:52.412Z,16.80
2023-05-13T20:12:29.739Z,16.80
2023-05-13T20:15:10.448Z,16.80
2023-05-13T20:17:44.227Z,16.70
2023-05-13T20:20:13.822Z,16.70
2023-05-13T20:22:58.785Z,16.60
2023-05-13T20:25:36.266Z,16.50
2023-05-13T20:28:15.753Z,16.50
2023-05-13T20:30:45.477Z,16.50
2023-05-13T20:33:18.981Z,16.40
2023-05-13T20:35:53.188Z,16.40
2023-05-13T20:38:25.788Z,16.40
2023-05-13T20:41:02.246Z,16.40
2023-05-13T20:43:53.918Z,16.40
2023-05-13T20:46:35.019Z,16.40
2023-05-13T20:49:11.077Z,16.40
2023-05-13T20:51:44.559Z,16.40
2023-05-13T20:54:24.622Z,16.40
2023-05-13T20:56:58.157Z,16.40
2023-05-13T20:59:30.294Z,16.50
2023-05-13T21:02:05.788Z,16.50
2023-05-13T21:04:39.936Z,16.50
2023-05-13T21:07:09.598Z,16.50
2023-05-13T21:09:43.733Z,16.50
2023-05-13T21:12:14.880Z,16.50
2023-05-13T21:14:46.504Z,16.50
2023-05-13T21:17:23.716Z,16.40
2023-05-13T21:20:05.809Z,16.40
2023-05-13T21:22:50.617Z,16.40
2023-05-13T21:25:22.620Z,16.50
2023-05-13T21:27:51.317Z,16.50
2023-05-13T21:30:43.037Z,16.50
2023-05-13T21:33:15.088Z,16.50
2023-05-13T21:35:47.595Z,16.40
2023-05-13T21:38:21.468Z,16.40
2023-05-13T21:40:50.966Z,16.40
2023-05-13T21:43:36.579Z,16.30
2023-05-13T21:46:23.203Z,16.30
2023-05-13T21:48:57.237Z,16.30
2023-05-13T21:51:32.284Z,16.20
2023-05-13T21:54:13.749Z,16.10
2023-05-13T21:56:54.317Z,16.10
2023-05-13T21:59:28.119Z,16.10
2023-05-13T22:02:07.008Z,16.10
2023-05-13T22:04:48.248Z,16.10
2023-05-13T22:07:21.897Z,16.00
2023-05-13T22:09:59.026Z,15.90
2023-05-13T22:12:30.719Z,15.80
2023-05-13T22:15:06.782Z,15.70
2023-05-13T22:18:00.539Z,15.70
2023-05-13T22:20:33.495Z,15.70
2023-05-13T22:23:13.468Z,15.60
2023-05-13T22:25:51.163Z,15.50
2023-05-13T22:28:25.601Z,15.40
2023-05-13T22:30:57.305Z,15.30
2023-05-13T22:33:31.266Z,15.30
2023-05-13T22:36:00.204Z,15.20
2023-05-13T22:38:30.940Z,15.20
2023-05-13T22:41:14.679Z,15.10
2023-05-13T22:43:47.811Z,15.10
2023-05-13T22:46:23.680Z,15.10
2023-05-13T22:49:00.981Z,15.00
2023-05-13T22:51:33.553Z,15.00
2023-05-13T22:54:12.767Z,15.00
2023-05-13T22:56:53.079Z,15.00
2023-05-13T22:59:30.398Z,15.00
2023-05-13T23:02:02.022Z,14.90
2023-05-13T23:04:44.629Z,14.80
2023-05-13T23:07:20.891Z,14.80
2023-05-13T23:10:06.780Z,14.80
2023-05-13T23:12:38.532Z,14.80
2023-05-13T23:15:16.733Z,14.70
2023-05-13T23:17:50.167Z,14.60
2023-05-13T23:20:29.813Z,14.60
2023-05-13T23:23:02.103Z,14.60
2023-05-13T23:25:35.087Z,14.50
2023-05-13T23:28:09.278Z,14.50
2023-05-13T23:30:41.058Z,14.40
2023-05-13T23:33:15.292Z,14.30
2023-05-13T23:36:02.333Z,14.30
2023-05-13T23:38:34.576Z,14.30
2023-05-13T23:41:15.210Z,14.20
2023-05-13T23:43:43.989Z,14.10
2023-05-13T23:46:17.245Z,14.10
2023-05-13T23:48:54.053Z,14.10
2023-05-13T23:51:29.434Z,14.10
2023-05-13T23:54:06.913Z,14.10
2023-05-13T23:56:40.419Z,14.10
2023-05-13T23:59:20.475Z,14.10
